Weather at Bakkafjörður Airport

Public forecast

Using degrees Celsius for public forecast. Weather courtesy of forecast.io.

Closest aviation weather report (METAR) to Bakkafjörður Airport

Report is more than 6 hours old.

Closest report is Vopnafjörður Airport, 18.1 nm (33.5 km) S. Retrieved 2020/10/29 08:22 UTC (1 month ago):

BIVO 290822Z 10023G44KT 9999 RA BKN010 BKN030 06/03 Q0995

Aviation forecast (TAF) for Bakkafjörður Airport

Forecast is more than 12 hours old.

Retrieved 2017/06/30 12:00 UTC (3 years ago):

TAF BIBK 301100Z 3012/0112 26006KT 8000 SCT013 TEMPO 3012/3018 BKN012 TEMPO 3018/3024 BKN014 PROB30 TEMPO 3022/0102 TS SCT015 FEW020CB PROB30 0104/0108 4000 BR BECMG 0108/0110 BKN011